Elk City, KS (67344)

12:37 AM CDT on October 21, 2014 (GMT -0500)
HADS ELK RIVER AT ELK CITY LAKE NEAR KS US USARMY-COE | Change Station
CLOSE
Current Station
Personal Weather Station
Location: Sycamore, KS
Elevation: 794 ft
Nearby Weather Stations

Elev 794 ft 37.28 °N, 95.78 °W | Updated 37 minutes ago

Clear
Clear
60 °F
Feels Like 60 °F
N
4
Wind Variable Wind from NNW
Gusts 0.0 mph

Today
High -- | Low -- °F
--% Chance of Precip.
Yesterday
High -- | Low -- °F
Precip. -- in
7:37 AM 6:38 PM
Waning Crescent, 7% visible
Pressure 30.07 in
Visibility 10.0 miles
Clouds Clear
Dew Point 54 °F
Humidity 81%
Rainfall 0.00 in
Snow Depth Not available.
UV 0 out of 12
Pollen 3.60 out of 12
Air Quality Not available.
Flu Activity No Activity
METAR KIDP 210515Z AUTO 00000KT 10SM CLR 12/11 A3007 RMK AO2

More Conditions Fewer Conditions

Pressure 30.07 in
Visibility 10.0 miles
Clouds Clear
Dew Point 54 °F
Humidity 81%
Rainfall 0.00 in
Snow Depth Not available.
UV 0 out of 12
Pollen 3.60 out of 12
Air Quality Not available.
Flu Activity No Activity
METAR KIDP 210515Z AUTO 00000KT 10SM CLR 12/11 A3007 RMK AO2

More Conditions Fewer Conditions

10-Day Weather Forecast

Almanac

Astronomy

Oct. 21, 2014 Rise Set
Actual Time 7:37 AM CDT 6:38 PM CDT
Civil Twilight 7:10 AM CDT 7:05 PM CDT
Nautical Twilight 6:40 AM CDT 7:35 PM CDT
Astronomical Twilight 6:10 AM CDT 8:05 PM CDT
Moon 5:25 AM CDT 5:31 PM CDT
Length of Visible Light 11h 54m
Length of Day
11h 01m
Tomorrow will be 2m 14s shorter.
Waning Crescent, 7% of the Moon is Illuminated
Today
Waning Crescent
Oct 23
New
Oct 30
First Quarter
Nov 6
Full
Nov 14
Last Quarter

Today's Extremes

State Highs State Lows

Community

WunderPhotos

Upload Photos

1,763,612 photos uploaded!

Nearby

Snow Depth

Station Depth Elevation
No new snow has been reported.

Earthquake Activity

City Distance Mag. Time & Date
Stillwater, Oklahoma 97 miles 2.5 11:26 PM CDT
2014-10-20
Medford, Oklahoma 115 miles 3.2 7:46 PM CDT
2014-10-20
Luther, Oklahoma 136 miles 2.8 4:33 PM CDT
2014-10-20
Boley, Oklahoma 134 miles 3.5 3:34 PM CDT
2014-10-20
Minimum magnitude displayed is 2.5.

Coastal Water Temperatures

Place Temperature
No Stations Reporting

Nearby Weather Stations